sensor_id;sensor_type;location;lat;lon;timestamp;P1;durP1;ratioP1;P2;durP2;ratioP2
75935;SDS011;64614;32.062;34.834;2023-09-07T00:01:26;8.20;;;4.80;;
75935;SDS011;64614;32.062;34.834;2023-09-07T00:03:51;7.60;;;4.70;;
75935;SDS011;64614;32.062;34.834;2023-09-07T00:06:17;8.57;;;4.55;;
75935;SDS011;64614;32.062;34.834;2023-09-07T00:08:43;9.48;;;4.80;;
75935;SDS011;64614;32.062;34.834;2023-09-07T00:11:09;7.53;;;4.60;;
75935;SDS011;64614;32.062;34.834;2023-09-07T00:13:35;7.07;;;4.47;;
75935;SDS011;64614;32.062;34.834;2023-09-07T00:16:01;7.68;;;4.93;;
75935;SDS011;64614;32.062;34.834;2023-09-07T00:18:29;8.15;;;4.60;;
75935;SDS011;64614;32.062;34.834;2023-09-07T00:20:58;8.07;;;4.53;;
75935;SDS011;64614;32.062;34.834;2023-09-07T00:23:25;7.18;;;4.40;;
75935;SDS011;64614;32.062;34.834;2023-09-07T00:25:50;8.52;;;4.30;;
75935;SDS011;64614;32.062;34.834;2023-09-07T00:28:16;8.13;;;4.50;;
75935;SDS011;64614;32.062;34.834;2023-09-07T00:30:42;7.15;;;4.60;;
75935;SDS011;64614;32.062;34.834;2023-09-07T00:33:08;7.43;;;4.35;;
75935;SDS011;64614;32.062;34.834;2023-09-07T00:35:34;8.60;;;4.60;;
75935;SDS011;64614;32.062;34.834;2023-09-07T00:38:00;8.45;;;4.63;;
75935;SDS011;64614;32.062;34.834;2023-09-07T00:40:25;8.73;;;4.93;;
75935;SDS011;64614;32.062;34.834;2023-09-07T00:42:51;7.47;;;4.43;;
75935;SDS011;64614;32.062;34.834;2023-09-07T00:45:17;7.47;;;4.28;;
75935;SDS011;64614;32.062;34.834;2023-09-07T00:47:43;7.82;;;4.60;;
75935;SDS011;64614;32.062;34.834;2023-09-07T00:50:10;7.82;;;4.70;;
75935;SDS011;64614;32.062;34.834;2023-09-07T00:52:39;8.13;;;4.95;;
75935;SDS011;64614;32.062;34.834;2023-09-07T00:55:08;11.07;;;4.90;;
75935;SDS011;64614;32.062;34.834;2023-09-07T00:57:35;8.52;;;4.95;;
75935;SDS011;64614;32.062;34.834;2023-09-07T01:00:05;7.60;;;4.82;;
75935;SDS011;64614;32.062;34.834;2023-09-07T01:02:32;8.25;;;4.88;;
75935;SDS011;64614;32.062;34.834;2023-09-07T01:04:58;8.95;;;4.70;;
75935;SDS011;64614;32.062;34.834;2023-09-07T01:07:25;8.70;;;5.18;;
75935;SDS011;64614;32.062;34.834;2023-09-07T01:09:58;9.52;;;5.45;;
75935;SDS011;64614;32.062;34.834;2023-09-07T01:12:26;11.20;;;5.43;;
75935;SDS011;64614;32.062;34.834;2023-09-07T01:14:52;8.88;;;4.57;;
75935;SDS011;64614;32.062;34.834;2023-09-07T01:17:18;8.25;;;4.95;;
75935;SDS011;64614;32.062;34.834;2023-09-07T01:19:45;8.13;;;4.78;;
75935;SDS011;64614;32.062;34.834;2023-09-07T01:22:12;8.70;;;5.15;;
75935;SDS011;64614;32.062;34.834;2023-09-07T01:24:39;9.40;;;4.90;;
75935;SDS011;64614;32.062;34.834;2023-09-07T01:27:06;8.38;;;4.75;;
75935;SDS011;64614;32.062;34.834;2023-09-07T01:29:32;9.02;;;5.10;;
75935;SDS011;64614;32.062;34.834;2023-09-07T01:31:58;9.38;;;6.05;;
75935;SDS011;64614;32.062;34.834;2023-09-07T01:34:24;8.35;;;4.65;;
75935;SDS011;64614;32.062;34.834;2023-09-07T01:36:50;8.23;;;4.95;;
75935;SDS011;64614;32.062;34.834;2023-09-07T01:39:16;8.45;;;4.78;;
75935;SDS011;64614;32.062;34.834;2023-09-07T01:41:46;8.00;;;4.82;;
75935;SDS011;64614;32.062;34.834;2023-09-07T01:44:11;7.60;;;4.68;;
75935;SDS011;64614;32.062;34.834;2023-09-07T01:46:37;7.45;;;4.57;;
75935;SDS011;64614;32.062;34.834;2023-09-07T01:49:02;6.82;;;4.38;;
75935;SDS011;64614;32.062;34.834;2023-09-07T01:51:28;8.38;;;4.60;;
75935;SDS011;64614;32.062;34.834;2023-09-07T01:53:54;7.65;;;4.82;;
75935;SDS011;64614;32.062;34.834;2023-09-07T01:56:20;8.10;;;4.55;;
75935;SDS011;64614;32.062;34.834;2023-09-07T01:58:45;7.47;;;4.60;;
75935;SDS011;64614;32.062;34.834;2023-09-07T02:03:47;8.20;;;4.47;;
75935;SDS011;64614;32.062;34.834;2023-09-07T02:06:13;7.60;;;4.55;;
75935;SDS011;64614;32.062;34.834;2023-09-07T02:08:39;7.78;;;4.45;;
75935;SDS011;64614;32.062;34.834;2023-09-07T02:11:07;8.23;;;4.97;;
75935;SDS011;64614;32.062;34.834;2023-09-07T02:13:33;8.38;;;4.47;;
75935;SDS011;64614;32.062;34.834;2023-09-07T02:16:02;8.13;;;4.80;;
75935;SDS011;64614;32.062;34.834;2023-09-07T02:18:31;7.57;;;4.75;;
75935;SDS011;64614;32.062;34.834;2023-09-07T02:21:01;7.25;;;4.65;;
75935;SDS011;64614;32.062;34.834;2023-09-07T02:23:29;8.13;;;5.05;;
75935;SDS011;64614;32.062;34.834;2023-09-07T02:25:55;7.70;;;4.80;;
75935;SDS011;64614;32.062;34.834;2023-09-07T02:28:21;7.70;;;4.10;;
75935;SDS011;64614;32.062;34.834;2023-09-07T02:30:47;6.90;;;4.55;;
75935;SDS011;64614;32.062;34.834;2023-09-07T02:33:13;7.38;;;4.60;;
75935;SDS011;64614;32.062;34.834;2023-09-07T02:35:38;6.82;;;4.40;;
75935;SDS011;64614;32.062;34.834;2023-09-07T02:38:04;7.00;;;4.25;;
75935;SDS011;64614;32.062;34.834;2023-09-07T02:40:32;7.30;;;4.28;;
75935;SDS011;64614;32.062;34.834;2023-09-07T02:42:58;6.40;;;4.40;;
75935;SDS011;64614;32.062;34.834;2023-09-07T02:45:24;6.90;;;4.43;;
75935;SDS011;64614;32.062;34.834;2023-09-07T02:47:49;6.60;;;4.05;;
75935;SDS011;64614;32.062;34.834;2023-09-07T02:50:16;5.93;;;3.83;;
75935;SDS011;64614;32.062;34.834;2023-09-07T02:52:43;6.05;;;3.90;;
75935;SDS011;64614;32.062;34.834;2023-09-07T02:55:08;6.80;;;4.18;;
75935;SDS011;64614;32.062;34.834;2023-09-07T02:57:34;7.22;;;3.95;;
75935;SDS011;64614;32.062;34.834;2023-09-07T03:00:00;6.75;;;3.88;;
75935;SDS011;64614;32.062;34.834;2023-09-07T03:02:34;6.72;;;3.80;;
75935;SDS011;64614;32.062;34.834;2023-09-07T03:05:00;7.00;;;3.72;;
75935;SDS011;64614;32.062;34.834;2023-09-07T03:07:29;6.10;;;3.85;;
75935;SDS011;64614;32.062;34.834;2023-09-07T03:09:57;7.57;;;3.92;;
75935;SDS011;64614;32.062;34.834;2023-09-07T03:12:23;6.60;;;3.80;;
75935;SDS011;64614;32.062;34.834;2023-09-07T03:14:48;6.85;;;4.15;;
75935;SDS011;64614;32.062;34.834;2023-09-07T03:17:15;7.45;;;4.53;;
75935;SDS011;64614;32.062;34.834;2023-09-07T03:19:42;7.93;;;4.72;;
75935;SDS011;64614;32.062;34.834;2023-09-07T03:22:07;9.00;;;4.47;;
75935;SDS011;64614;32.062;34.834;2023-09-07T03:24:34;10.73;;;5.53;;
75935;SDS011;64614;32.062;34.834;2023-09-07T03:26:59;12.70;;;5.82;;
75935;SDS011;64614;32.062;34.834;2023-09-07T03:29:25;11.85;;;6.00;;
75935;SDS011;64614;32.062;34.834;2023-09-07T03:31:51;12.45;;;6.50;;
75935;SDS011;64614;32.062;34.834;2023-09-07T03:34:16;16.58;;;7.20;;
75935;SDS011;64614;32.062;34.834;2023-09-07T03:36:42;19.85;;;7.82;;
75935;SDS011;64614;32.062;34.834;2023-09-07T03:39:08;15.10;;;7.95;;
75935;SDS011;64614;32.062;34.834;2023-09-07T03:41:34;15.57;;;8.25;;
75935;SDS011;64614;32.062;34.834;2023-09-07T03:44:00;14.70;;;8.23;;
75935;SDS011;64614;32.062;34.834;2023-09-07T03:46:26;16.35;;;8.73;;
75935;SDS011;64614;32.062;34.834;2023-09-07T03:48:51;19.52;;;9.13;;
75935;SDS011;64614;32.062;34.834;2023-09-07T03:51:17;18.48;;;9.15;;
75935;SDS011;64614;32.062;34.834;2023-09-07T03:53:43;18.45;;;8.88;;
75935;SDS011;64614;32.062;34.834;2023-09-07T03:56:09;18.35;;;9.40;;
75935;SDS011;64614;32.062;34.834;2023-09-07T03:58:34;20.40;;;10.20;;
75935;SDS011;64614;32.062;34.834;2023-09-07T04:01:00;20.45;;;10.23;;
75935;SDS011;64614;32.062;34.834;2023-09-07T04:03:26;19.35;;;9.90;;
75935;SDS011;64614;32.062;34.834;2023-09-07T04:05:52;20.13;;;10.07;;
75935;SDS011;64614;32.062;34.834;2023-09-07T04:08:18;16.20;;;10.57;;
75935;SDS011;64614;32.062;34.834;2023-09-07T04:10:43;18.23;;;11.02;;
75935;SDS011;64614;32.062;34.834;2023-09-07T04:13:09;16.95;;;10.15;;
75935;SDS011;64614;32.062;34.834;2023-09-07T04:15:44;19.05;;;11.15;;
75935;SDS011;64614;32.062;34.834;2023-09-07T04:18:11;20.75;;;11.55;;
75935;SDS011;64614;32.062;34.834;2023-09-07T04:20:42;21.48;;;11.88;;
75935;SDS011;64614;32.062;34.834;2023-09-07T04:23:08;18.95;;;11.43;;
75935;SDS011;64614;32.062;34.834;2023-09-07T04:25:34;20.38;;;11.60;;
75935;SDS011;64614;32.062;34.834;2023-09-07T04:27:59;18.73;;;12.48;;
75935;SDS011;64614;32.062;34.834;2023-09-07T04:30:25;17.30;;;10.68;;
75935;SDS011;64614;32.062;34.834;2023-09-07T04:32:53;17.73;;;10.93;;
75935;SDS011;64614;32.062;34.834;2023-09-07T04:35:21;19.05;;;11.93;;
75935;SDS011;64614;32.062;34.834;2023-09-07T04:40:27;17.52;;;10.32;;
75935;SDS011;64614;32.062;34.834;2023-09-07T04:42:52;18.65;;;10.25;;
75935;SDS011;64614;32.062;34.834;2023-09-07T04:45:18;16.35;;;10.68;;
75935;SDS011;64614;32.062;34.834;2023-09-07T04:47:43;16.45;;;10.40;;
75935;SDS011;64614;32.062;34.834;2023-09-07T04:50:09;19.05;;;10.18;;
75935;SDS011;64614;32.062;34.834;2023-09-07T04:52:35;17.98;;;10.35;;
75935;SDS011;64614;32.062;34.834;2023-09-07T04:55:01;19.58;;;10.30;;
75935;SDS011;64614;32.062;34.834;2023-09-07T04:57:29;17.00;;;10.07;;
75935;SDS011;64614;32.062;34.834;2023-09-07T04:59:55;17.55;;;9.65;;
75935;SDS011;64614;32.062;34.834;2023-09-07T05:02:21;16.45;;;9.40;;
75935;SDS011;64614;32.062;34.834;2023-09-07T05:04:47;16.08;;;9.52;;
75935;SDS011;64614;32.062;34.834;2023-09-07T05:07:12;15.00;;;8.85;;
75935;SDS011;64614;32.062;34.834;2023-09-07T05:09:38;14.82;;;9.25;;
75935;SDS011;64614;32.062;34.834;2023-09-07T05:12:04;16.88;;;9.30;;
75935;SDS011;64614;32.062;34.834;2023-09-07T05:14:30;15.48;;;8.77;;
75935;SDS011;64614;32.062;34.834;2023-09-07T05:16:55;15.18;;;8.60;;
75935;SDS011;64614;32.062;34.834;2023-09-07T05:19:24;15.13;;;8.55;;
75935;SDS011;64614;32.062;34.834;2023-09-07T05:21:49;14.57;;;8.18;;
75935;SDS011;64614;32.062;34.834;2023-09-07T05:24:15;14.75;;;8.85;;
75935;SDS011;64614;32.062;34.834;2023-09-07T05:26:44;12.68;;;7.85;;
75935;SDS011;64614;32.062;34.834;2023-09-07T05:29:10;13.00;;;7.60;;
75935;SDS011;64614;32.062;34.834;2023-09-07T05:31:36;13.35;;;8.05;;
75935;SDS011;64614;32.062;34.834;2023-09-07T05:34:02;15.40;;;8.18;;
75935;SDS011;64614;32.062;34.834;2023-09-07T05:36:28;13.07;;;7.55;;
75935;SDS011;64614;32.062;34.834;2023-09-07T05:38:54;13.82;;;7.82;;
75935;SDS011;64614;32.062;34.834;2023-09-07T05:41:20;11.15;;;7.50;;
75935;SDS011;64614;32.062;34.834;2023-09-07T05:43:46;12.90;;;7.70;;
75935;SDS011;64614;32.062;34.834;2023-09-07T05:46:11;11.25;;;7.35;;
75935;SDS011;64614;32.062;34.834;2023-09-07T05:48:37;11.60;;;7.30;;
75935;SDS011;64614;32.062;34.834;2023-09-07T05:51:03;11.75;;;7.07;;
75935;SDS011;64614;32.062;34.834;2023-09-07T05:53:29;11.45;;;7.53;;
75935;SDS011;64614;32.062;34.834;2023-09-07T05:55:54;10.70;;;6.50;;
75935;SDS011;64614;32.062;34.834;2023-09-07T05:58:20;13.13;;;7.38;;
75935;SDS011;64614;32.062;34.834;2023-09-07T06:00:45;11.75;;;6.88;;
75935;SDS011;64614;32.062;34.834;2023-09-07T06:03:11;12.60;;;7.10;;
75935;SDS011;64614;32.062;34.834;2023-09-07T06:05:37;12.70;;;7.22;;
75935;SDS011;64614;32.062;34.834;2023-09-07T06:08:04;12.15;;;7.03;;
75935;SDS011;64614;32.062;34.834;2023-09-07T06:10:34;11.98;;;7.53;;
75935;SDS011;64614;32.062;34.834;2023-09-07T06:12:59;10.13;;;6.40;;
75935;SDS011;64614;32.062;34.834;2023-09-07T06:15:25;10.95;;;7.03;;
75935;SDS011;64614;32.062;34.834;2023-09-07T06:17:52;10.32;;;6.28;;
75935;SDS011;64614;32.062;34.834;2023-09-07T06:20:19;11.38;;;6.72;;
75935;SDS011;64614;32.062;34.834;2023-09-07T06:22:45;12.00;;;7.28;;
75935;SDS011;64614;32.062;34.834;2023-09-07T06:25:11;10.43;;;6.85;;
75935;SDS011;64614;32.062;34.834;2023-09-07T06:27:37;10.68;;;6.63;;
75935;SDS011;64614;32.062;34.834;2023-09-07T06:30:03;10.73;;;7.07;;
75935;SDS011;64614;32.062;34.834;2023-09-07T06:32:31;12.02;;;6.47;;
75935;SDS011;64614;32.062;34.834;2023-09-07T06:34:57;10.82;;;6.75;;
75935;SDS011;64614;32.062;34.834;2023-09-07T06:37:23;11.30;;;6.70;;
75935;SDS011;64614;32.062;34.834;2023-09-07T06:39:53;11.13;;;6.32;;
75935;SDS011;64614;32.062;34.834;2023-09-07T06:42:19;10.60;;;6.45;;
75935;SDS011;64614;32.062;34.834;2023-09-07T06:44:44;10.52;;;6.63;;
75935;SDS011;64614;32.062;34.834;2023-09-07T06:47:10;10.05;;;6.43;;
75935;SDS011;64614;32.062;34.834;2023-09-07T06:49:37;10.18;;;5.95;;
75935;SDS011;64614;32.062;34.834;2023-09-07T06:52:03;9.95;;;6.10;;
75935;SDS011;64614;32.062;34.834;2023-09-07T06:54:29;11.75;;;7.32;;
75935;SDS011;64614;32.062;34.834;2023-09-07T06:56:55;9.80;;;5.82;;
75935;SDS011;64614;32.062;34.834;2023-09-07T06:59:21;10.65;;;6.35;;
75935;SDS011;64614;32.062;34.834;2023-09-07T07:01:46;11.90;;;7.05;;
75935;SDS011;64614;32.062;34.834;2023-09-07T07:04:12;10.57;;;5.60;;
75935;SDS011;64614;32.062;34.834;2023-09-07T07:06:38;10.30;;;6.90;;
75935;SDS011;64614;32.062;34.834;2023-09-07T07:09:04;10.80;;;5.60;;
75935;SDS011;64614;32.062;34.834;2023-09-07T07:11:30;9.07;;;5.75;;
75935;SDS011;64614;32.062;34.834;2023-09-07T07:13:56;8.02;;;5.15;;
75935;SDS011;64614;32.062;34.834;2023-09-07T07:16:21;10.38;;;5.70;;
75935;SDS011;64614;32.062;34.834;2023-09-07T07:18:47;9.38;;;5.82;;
75935;SDS011;64614;32.062;34.834;2023-09-07T07:21:13;8.90;;;5.43;;
75935;SDS011;64614;32.062;34.834;2023-09-07T07:23:38;8.55;;;5.30;;
75935;SDS011;64614;32.062;34.834;2023-09-07T07:26:04;8.20;;;5.25;;
75935;SDS011;64614;32.062;34.834;2023-09-07T07:28:30;9.70;;;5.80;;
75935;SDS011;64614;32.062;34.834;2023-09-07T07:30:55;8.98;;;5.50;;
75935;SDS011;64614;32.062;34.834;2023-09-07T07:33:21;8.95;;;5.25;;
75935;SDS011;64614;32.062;34.834;2023-09-07T07:35:47;8.60;;;4.97;;
75935;SDS011;64614;32.062;34.834;2023-09-07T07:38:13;8.05;;;5.30;;
75935;SDS011;64614;32.062;34.834;2023-09-07T07:40:40;8.35;;;5.20;;
75935;SDS011;64614;32.062;34.834;2023-09-07T07:43:05;8.25;;;5.10;;
75935;SDS011;64614;32.062;34.834;2023-09-07T07:45:32;9.10;;;5.05;;
75935;SDS011;64614;32.062;34.834;2023-09-07T07:48:01;7.95;;;4.85;;
75935;SDS011;64614;32.062;34.834;2023-09-07T07:52:56;8.00;;;4.78;;
75935;SDS011;64614;32.062;34.834;2023-09-07T07:55:22;7.32;;;4.57;;
75935;SDS011;64614;32.062;34.834;2023-09-07T07:57:48;9.05;;;5.35;;
75935;SDS011;64614;32.062;34.834;2023-09-07T08:00:13;8.30;;;4.60;;
75935;SDS011;64614;32.062;34.834;2023-09-07T08:02:39;7.38;;;4.72;;
75935;SDS011;64614;32.062;34.834;2023-09-07T08:05:05;8.68;;;5.05;;
75935;SDS011;64614;32.062;34.834;2023-09-07T08:07:31;8.30;;;4.95;;
75935;SDS011;64614;32.062;34.834;2023-09-07T08:09:56;8.18;;;4.95;;
75935;SDS011;64614;32.062;34.834;2023-09-07T08:12:22;8.05;;;5.00;;
75935;SDS011;64614;32.062;34.834;2023-09-07T08:14:48;7.45;;;4.57;;
75935;SDS011;64614;32.062;34.834;2023-09-07T08:17:13;7.65;;;4.35;;
75935;SDS011;64614;32.062;34.834;2023-09-07T08:19:39;7.13;;;4.05;;
75935;SDS011;64614;32.062;34.834;2023-09-07T08:22:05;8.45;;;4.85;;
75935;SDS011;64614;32.062;34.834;2023-09-07T08:24:31;7.57;;;4.75;;
75935;SDS011;64614;32.062;34.834;2023-09-07T08:26:57;7.20;;;4.50;;
75935;SDS011;64614;32.062;34.834;2023-09-07T08:29:25;7.75;;;4.30;;
75935;SDS011;64614;32.062;34.834;2023-09-07T08:31:52;7.57;;;4.47;;
75935;SDS011;64614;32.062;34.834;2023-09-07T08:34:19;7.82;;;4.32;;
75935;SDS011;64614;32.062;34.834;2023-09-07T08:36:47;7.20;;;4.10;;
75935;SDS011;64614;32.062;34.834;2023-09-07T08:39:15;8.65;;;4.38;;
75935;SDS011;64614;32.062;34.834;2023-09-07T08:41:42;7.43;;;4.43;;
75935;SDS011;64614;32.062;34.834;2023-09-07T08:44:15;7.30;;;4.03;;
75935;SDS011;64614;32.062;34.834;2023-09-07T08:46:42;7.70;;;4.13;;
75935;SDS011;64614;32.062;34.834;2023-09-07T08:49:09;7.10;;;4.45;;
75935;SDS011;64614;32.062;34.834;2023-09-07T08:51:37;8.30;;;4.97;;
75935;SDS011;64614;32.062;34.834;2023-09-07T08:54:04;7.60;;;4.57;;
75935;SDS011;64614;32.062;34.834;2023-09-07T08:56:30;7.32;;;4.43;;
75935;SDS011;64614;32.062;34.834;2023-09-07T08:58:57;6.85;;;3.97;;
75935;SDS011;64614;32.062;34.834;2023-09-07T09:01:22;6.95;;;4.43;;
75935;SDS011;64614;32.062;34.834;2023-09-07T09:03:49;6.80;;;4.13;;
75935;SDS011;64614;32.062;34.834;2023-09-07T09:06:19;6.47;;;3.83;;
75935;SDS011;64614;32.062;34.834;2023-09-07T09:08:47;8.30;;;4.30;;
75935;SDS011;64614;32.062;34.834;2023-09-07T09:11:20;6.63;;;3.80;;
75935;SDS011;64614;32.062;34.834;2023-09-07T09:13:47;6.22;;;3.70;;
75935;SDS011;64614;32.062;34.834;2023-09-07T09:16:14;6.53;;;3.90;;
75935;SDS011;64614;32.062;34.834;2023-09-07T09:18:55;6.90;;;4.20;;
75935;SDS011;64614;32.062;34.834;2023-09-07T09:21:22;6.63;;;3.85;;
75935;SDS011;64614;32.062;34.834;2023-09-07T09:23:50;6.03;;;3.85;;
75935;SDS011;64614;32.062;34.834;2023-09-07T09:26:17;6.55;;;3.90;;
75935;SDS011;64614;32.062;34.834;2023-09-07T09:28:43;6.53;;;3.80;;
75935;SDS011;64614;32.062;34.834;2023-09-07T09:31:12;6.10;;;3.55;;
75935;SDS011;64614;32.062;34.834;2023-09-07T09:33:39;7.85;;;4.20;;
75935;SDS011;64614;32.062;34.834;2023-09-07T09:36:08;7.75;;;4.18;;
75935;SDS011;64614;32.062;34.834;2023-09-07T09:38:34;6.78;;;3.80;;
75935;SDS011;64614;32.062;34.834;2023-09-07T09:41:01;6.25;;;3.92;;
75935;SDS011;64614;32.062;34.834;2023-09-07T09:43:30;6.18;;;3.53;;
75935;SDS011;64614;32.062;34.834;2023-09-07T09:45:56;6.07;;;3.60;;
75935;SDS011;64614;32.062;34.834;2023-09-07T09:48:23;5.53;;;3.55;;
75935;SDS011;64614;32.062;34.834;2023-09-07T09:50:49;6.75;;;3.90;;
75935;SDS011;64614;32.062;34.834;2023-09-07T09:53:16;6.20;;;3.65;;
75935;SDS011;64614;32.062;34.834;2023-09-07T09:55:45;6.60;;;3.65;;
75935;SDS011;64614;32.062;34.834;2023-09-07T09:58:12;6.28;;;3.47;;
75935;SDS011;64614;32.062;34.834;2023-09-07T10:00:40;6.13;;;3.47;;
75935;SDS011;64614;32.062;34.834;2023-09-07T10:03:12;5.85;;;3.40;;
75935;SDS011;64614;32.062;34.834;2023-09-07T10:05:46;6.20;;;3.75;;
75935;SDS011;64614;32.062;34.834;2023-09-07T10:08:12;5.85;;;3.25;;
75935;SDS011;64614;32.062;34.834;2023-09-07T10:10:38;5.75;;;3.35;;
75935;SDS011;64614;32.062;34.834;2023-09-07T10:13:06;5.90;;;3.25;;
75935;SDS011;64614;32.062;34.834;2023-09-07T10:15:31;5.65;;;3.17;;
75935;SDS011;64614;32.062;34.834;2023-09-07T10:18:14;6.13;;;3.20;;
75935;SDS011;64614;32.062;34.834;2023-09-07T10:20:49;5.53;;;3.22;;
75935;SDS011;64614;32.062;34.834;2023-09-07T10:23:23;5.93;;;3.35;;
75935;SDS011;64614;32.062;34.834;2023-09-07T10:26:16;4.88;;;3.03;;
75935;SDS011;64614;32.062;34.834;2023-09-07T10:28:44;5.45;;;3.20;;
75935;SDS011;64614;32.062;34.834;2023-09-07T10:31:14;6.57;;;3.53;;
75935;SDS011;64614;32.062;34.834;2023-09-07T10:33:41;4.45;;;2.90;;
75935;SDS011;64614;32.062;34.834;2023-09-07T10:36:07;6.18;;;3.10;;
75935;SDS011;64614;32.062;34.834;2023-09-07T10:38:33;6.10;;;3.28;;
75935;SDS011;64614;32.062;34.834;2023-09-07T10:41:01;4.85;;;3.00;;
75935;SDS011;64614;32.062;34.834;2023-09-07T10:43:32;6.82;;;4.38;;
75935;SDS011;64614;32.062;34.834;2023-09-07T10:45:59;8.85;;;4.85;;
75935;SDS011;64614;32.062;34.834;2023-09-07T10:48:26;6.70;;;4.00;;
75935;SDS011;64614;32.062;34.834;2023-09-07T10:50:54;8.20;;;4.60;;
75935;SDS011;64614;32.062;34.834;2023-09-07T10:53:27;7.53;;;4.63;;
75935;SDS011;64614;32.062;34.834;2023-09-07T10:55:56;8.20;;;4.80;;
75935;SDS011;64614;32.062;34.834;2023-09-07T10:58:27;8.93;;;4.28;;
75935;SDS011;64614;32.062;34.834;2023-09-07T11:00:55;7.03;;;4.28;;
75935;SDS011;64614;32.062;34.834;2023-09-07T11:03:21;6.38;;;3.88;;
75935;SDS011;64614;32.062;34.834;2023-09-07T11:05:47;6.32;;;3.90;;
75935;SDS011;64614;32.062;34.834;2023-09-07T11:08:15;6.72;;;3.70;;
75935;SDS011;64614;32.062;34.834;2023-09-07T11:10:40;6.65;;;3.95;;
75935;SDS011;64614;32.062;34.834;2023-09-07T11:13:07;6.43;;;4.00;;
75935;SDS011;64614;32.062;34.834;2023-09-07T11:15:34;6.65;;;3.28;;
75935;SDS011;64614;32.062;34.834;2023-09-07T11:18:07;6.03;;;3.55;;
75935;SDS011;64614;32.062;34.834;2023-09-07T11:20:37;6.18;;;3.67;;
75935;SDS011;64614;32.062;34.834;2023-09-07T11:25:35;5.43;;;3.25;;
75935;SDS011;64614;32.062;34.834;2023-09-07T11:28:03;5.75;;;3.72;;
75935;SDS011;64614;32.062;34.834;2023-09-07T11:30:32;6.15;;;3.65;;
75935;SDS011;64614;32.062;34.834;2023-09-07T11:35:29;4.97;;;3.10;;
75935;SDS011;64614;32.062;34.834;2023-09-07T11:37:55;5.00;;;3.10;;
75935;SDS011;64614;32.062;34.834;2023-09-07T11:40:20;6.88;;;3.33;;
75935;SDS011;64614;32.062;34.834;2023-09-07T11:42:46;5.03;;;3.13;;
75935;SDS011;64614;32.062;34.834;2023-09-07T11:45:12;5.32;;;3.20;;
75935;SDS011;64614;32.062;34.834;2023-09-07T11:47:38;5.82;;;3.13;;
75935;SDS011;64614;32.062;34.834;2023-09-07T11:50:05;4.70;;;2.53;;
75935;SDS011;64614;32.062;34.834;2023-09-07T11:52:31;5.93;;;3.10;;
75935;SDS011;64614;32.062;34.834;2023-09-07T11:54:57;5.07;;;3.03;;
75935;SDS011;64614;32.062;34.834;2023-09-07T11:57:23;4.57;;;2.90;;
75935;SDS011;64614;32.062;34.834;2023-09-07T11:59:49;4.45;;;2.70;;
75935;SDS011;64614;32.062;34.834;2023-09-07T12:02:14;4.63;;;2.92;;
75935;SDS011;64614;32.062;34.834;2023-09-07T12:04:41;4.60;;;2.78;;
75935;SDS011;64614;32.062;34.834;2023-09-07T12:07:07;4.10;;;2.58;;
75935;SDS011;64614;32.062;34.834;2023-09-07T12:09:32;4.53;;;2.58;;
75935;SDS011;64614;32.062;34.834;2023-09-07T12:11:58;4.43;;;2.60;;
75935;SDS011;64614;32.062;34.834;2023-09-07T12:14:24;4.60;;;2.83;;
75935;SDS011;64614;32.062;34.834;2023-09-07T12:16:49;4.80;;;3.00;;
75935;SDS011;64614;32.062;34.834;2023-09-07T12:19:15;4.55;;;2.80;;
75935;SDS011;64614;32.062;34.834;2023-09-07T12:21:42;4.20;;;2.85;;
75935;SDS011;64614;32.062;34.834;2023-09-07T12:24:08;5.47;;;3.20;;
75935;SDS011;64614;32.062;34.834;2023-09-07T12:26:33;4.38;;;2.80;;
75935;SDS011;64614;32.062;34.834;2023-09-07T12:28:59;4.40;;;2.50;;
75935;SDS011;64614;32.062;34.834;2023-09-07T12:31:25;5.38;;;2.80;;
75935;SDS011;64614;32.062;34.834;2023-09-07T12:33:51;6.78;;;2.90;;
75935;SDS011;64614;32.062;34.834;2023-09-07T12:36:17;4.65;;;2.70;;
75935;SDS011;64614;32.062;34.834;2023-09-07T12:38:43;4.88;;;2.60;;
75935;SDS011;64614;32.062;34.834;2023-09-07T12:41:08;4.85;;;2.88;;
75935;SDS011;64614;32.062;34.834;2023-09-07T12:43:34;4.63;;;2.60;;
75935;SDS011;64614;32.062;34.834;2023-09-07T12:46:01;3.78;;;2.38;;
75935;SDS011;64614;32.062;34.834;2023-09-07T12:48:27;5.40;;;2.90;;
75935;SDS011;64614;32.062;34.834;2023-09-07T12:50:53;5.45;;;3.13;;
75935;SDS011;64614;32.062;34.834;2023-09-07T12:53:20;6.80;;;3.13;;
75935;SDS011;64614;32.062;34.834;2023-09-07T12:55:49;4.95;;;2.70;;
75935;SDS011;64614;32.062;34.834;2023-09-07T12:58:17;7.45;;;3.05;;
75935;SDS011;64614;32.062;34.834;2023-09-07T13:00:42;5.43;;;2.72;;
75935;SDS011;64614;32.062;34.834;2023-09-07T13:03:08;5.45;;;2.53;;
75935;SDS011;64614;32.062;34.834;2023-09-07T13:05:33;6.00;;;3.20;;
75935;SDS011;64614;32.062;34.834;2023-09-07T13:08:00;6.03;;;3.00;;
75935;SDS011;64614;32.062;34.834;2023-09-07T13:10:27;7.95;;;2.88;;
75935;SDS011;64614;32.062;34.834;2023-09-07T13:12:53;5.88;;;2.60;;
75935;SDS011;64614;32.062;34.834;2023-09-07T13:15:18;5.63;;;2.70;;
75935;SDS011;64614;32.062;34.834;2023-09-07T13:17:44;5.78;;;2.90;;
75935;SDS011;64614;32.062;34.834;2023-09-07T13:20:10;6.68;;;2.63;;
75935;SDS011;64614;32.062;34.834;2023-09-07T13:22:37;6.00;;;2.75;;
75935;SDS011;64614;32.062;34.834;2023-09-07T13:25:03;4.40;;;2.42;;
75935;SDS011;64614;32.062;34.834;2023-09-07T13:27:30;5.60;;;2.60;;
75935;SDS011;64614;32.062;34.834;2023-09-07T13:29:56;5.32;;;2.60;;
75935;SDS011;64614;32.062;34.834;2023-09-07T13:32:22;5.22;;;2.60;;
75935;SDS011;64614;32.062;34.834;2023-09-07T13:34:49;4.85;;;2.45;;
75935;SDS011;64614;32.062;34.834;2023-09-07T13:37:15;5.35;;;2.85;;
75935;SDS011;64614;32.062;34.834;2023-09-07T13:39:41;6.13;;;2.75;;
75935;SDS011;64614;32.062;34.834;2023-09-07T13:42:06;5.13;;;2.70;;
75935;SDS011;64614;32.062;34.834;2023-09-07T13:44:32;5.45;;;3.05;;
75935;SDS011;64614;32.062;34.834;2023-09-07T13:46:58;5.90;;;2.90;;
75935;SDS011;64614;32.062;34.834;2023-09-07T13:49:24;6.22;;;2.88;;
75935;SDS011;64614;32.062;34.834;2023-09-07T13:51:50;6.82;;;3.15;;
75935;SDS011;64614;32.062;34.834;2023-09-07T13:54:16;7.57;;;3.40;;
75935;SDS011;64614;32.062;34.834;2023-09-07T13:56:41;7.22;;;2.83;;
75935;SDS011;64614;32.062;34.834;2023-09-07T13:59:09;7.65;;;3.10;;
75935;SDS011;64614;32.062;34.834;2023-09-07T14:01:35;8.45;;;3.25;;
75935;SDS011;64614;32.062;34.834;2023-09-07T14:04:02;5.95;;;3.20;;
75935;SDS011;64614;32.062;34.834;2023-09-07T14:06:29;7.45;;;3.30;;
75935;SDS011;64614;32.062;34.834;2023-09-07T14:08:54;7.38;;;3.20;;
75935;SDS011;64614;32.062;34.834;2023-09-07T14:11:20;8.20;;;3.22;;
75935;SDS011;64614;32.062;34.834;2023-09-07T14:13:47;8.50;;;3.47;;
75935;SDS011;64614;32.062;34.834;2023-09-07T14:16:19;7.00;;;3.47;;
75935;SDS011;64614;32.062;34.834;2023-09-07T14:18:46;6.18;;;3.17;;
75935;SDS011;64614;32.062;34.834;2023-09-07T14:21:15;5.53;;;3.00;;
75935;SDS011;64614;32.062;34.834;2023-09-07T14:23:46;6.90;;;2.80;;
75935;SDS011;64614;32.062;34.834;2023-09-07T14:26:12;5.68;;;2.90;;
75935;SDS011;64614;32.062;34.834;2023-09-07T14:28:37;5.25;;;2.90;;
75935;SDS011;64614;32.062;34.834;2023-09-07T14:31:04;5.13;;;2.80;;
75935;SDS011;64614;32.062;34.834;2023-09-07T14:33:32;6.40;;;3.45;;
75935;SDS011;64614;32.062;34.834;2023-09-07T14:35:59;5.70;;;2.90;;
75935;SDS011;64614;32.062;34.834;2023-09-07T14:38:25;5.95;;;3.25;;
75935;SDS011;64614;32.062;34.834;2023-09-07T14:40:54;5.25;;;3.08;;